createdAt,value
2023-03-24T00:01:11.494Z,21.23
2023-03-24T00:06:13.292Z,18.95
2023-03-24T00:11:11.845Z,22.27
2023-03-24T00:16:12.050Z,17.13
2023-03-24T00:21:10.982Z,20.67
2023-03-24T00:26:11.832Z,16.95
2023-03-24T00:31:10.397Z,16.25
2023-03-24T00:36:11.397Z,18.38
2023-03-24T00:41:10.015Z,14.68
2023-03-24T00:46:10.848Z,20.73
2023-03-24T00:51:10.260Z,17.70
2023-03-24T00:56:08.525Z,18.38
2023-03-24T01:01:06.529Z,17.80
2023-03-24T01:06:04.649Z,17.27
2023-03-24T01:11:04.146Z,15.63
2023-03-24T01:16:01.295Z,17.95
2023-03-24T01:20:58.712Z,15.55
2023-03-24T01:25:55.523Z,18.27
2023-03-24T01:30:54.083Z,16.40
2023-03-24T01:35:51.054Z,15.57
2023-03-24T01:40:48.217Z,15.52
2023-03-24T01:46:13.031Z,19.90
2023-03-24T01:51:14.997Z,18.88
2023-03-24T01:56:13.157Z,16.90
2023-03-24T02:01:13.889Z,17.80
2023-03-24T02:06:34.699Z,19.60
2023-03-24T02:11:35.566Z,18.95
2023-03-24T02:16:49.388Z,19.30
2023-03-24T02:22:28.664Z,20.17
2023-03-24T02:27:45.530Z,22.65
2023-03-24T02:33:06.470Z,23.42
2023-03-24T02:38:24.497Z,32.78
2023-03-24T02:43:33.223Z,22.92
2023-03-24T02:48:37.202Z,24.60
2023-03-24T02:53:43.231Z,23.20
2023-03-24T02:58:58.161Z,20.23
2023-03-24T03:03:59.163Z,18.08
2023-03-24T03:08:59.828Z,18.23
2023-03-24T03:14:02.213Z,40.85
2023-03-24T03:19:02.986Z,23.80
2023-03-24T03:24:06.236Z,22.02
2023-03-24T03:29:11.416Z,17.95
2023-03-24T03:34:17.271Z,24.70
2023-03-24T03:39:19.238Z,25.48
2023-03-24T03:44:17.149Z,22.15
2023-03-24T03:49:14.315Z,14.63
2023-03-24T03:54:14.194Z,15.30
2023-03-24T03:59:24.402Z,18.05
2023-03-24T04:04:53.255Z,15.50
2023-03-24T04:10:21.049Z,18.60
2023-03-24T04:15:43.480Z,18.90
2023-03-24T04:21:15.497Z,19.20
2023-03-24T04:26:25.646Z,19.15
2023-03-24T04:31:29.435Z,18.48
2023-03-24T04:36:33.863Z,15.80
2023-03-24T04:41:52.556Z,21.45
2023-03-24T04:47:02.065Z,24.97
2023-03-24T04:51:59.387Z,25.77
2023-03-24T04:57:01.106Z,34.83
2023-03-24T05:02:00.943Z,61.67
2023-03-24T05:07:01.104Z,33.17
2023-03-24T05:11:59.276Z,30.17
2023-03-24T05:17:01.458Z,31.25
2023-03-24T05:21:59.214Z,38.50
2023-03-24T05:26:59.578Z,31.58
2023-03-24T05:32:08.805Z,30.83
2023-03-24T05:37:13.701Z,41.08
2023-03-24T05:42:15.674Z,23.70
2023-03-24T05:47:21.364Z,30.52
2023-03-24T05:52:22.064Z,25.67
2023-03-24T05:57:21.147Z,20.08
2023-03-24T06:02:39.300Z,16.45
2023-03-24T06:07:51.897Z,13.55
2023-03-24T06:12:50.438Z,18.73
2023-03-24T06:17:49.552Z,16.85
2023-03-24T06:23:03.009Z,25.55
2023-03-24T06:28:13.697Z,13.30
2023-03-24T06:33:13.387Z,13.57
2023-03-24T06:38:13.808Z,14.05
2023-03-24T06:43:11.731Z,14.55
2023-03-24T06:48:11.975Z,12.27
2023-03-24T06:53:09.316Z,15.07
2023-03-24T06:58:08.174Z,14.77
2023-03-24T07:03:26.453Z,17.98
2023-03-24T07:08:46.384Z,14.57
2023-03-24T07:13:44.063Z,13.25
2023-03-24T07:18:41.581Z,18.60
2023-03-24T07:23:43.572Z,15.73
2023-03-24T07:28:44.557Z,15.60
2023-03-24T07:33:43.351Z,17.52
2023-03-24T07:38:40.346Z,23.27
2023-03-24T07:43:41.979Z,16.65
2023-03-24T07:49:01.281Z,13.13
2023-03-24T07:54:05.995Z,13.93
2023-03-24T07:59:09.877Z,15.05
2023-03-24T08:04:31.930Z,12.90
2023-03-24T08:09:51.958Z,15.23
2023-03-24T08:14:48.750Z,13.55
2023-03-24T08:19:59.113Z,10.18
2023-03-24T08:25:03.398Z,12.43
2023-03-24T08:30:00.434Z,10.57
2023-03-24T08:34:58.490Z,10.02
2023-03-24T08:40:00.207Z,19.70
2023-03-24T08:44:58.038Z,14.80
2023-03-24T08:50:12.217Z,7.63
2023-03-24T08:55:23.646Z,7.32
2023-03-24T09:00:22.291Z,7.15
2023-03-24T09:05:32.869Z,6.68
2023-03-24T09:10:34.153Z,7.63
2023-03-24T09:15:35.542Z,6.82
2023-03-24T09:20:33.461Z,11.93
2023-03-24T09:25:32.564Z,7.65
2023-03-24T09:30:30.992Z,11.13
2023-03-24T09:35:29.224Z,11.30
2023-03-24T09:40:29.299Z,9.50
2023-03-24T09:45:28.883Z,7.07
2023-03-24T09:50:28.869Z,8.82
2023-03-24T09:55:28.842Z,9.30
2023-03-24T10:00:28.790Z,10.07
2023-03-24T10:05:31.107Z,7.95
2023-03-24T10:10:35.089Z,7.85
2023-03-24T10:15:38.577Z,6.70
2023-03-24T10:20:44.090Z,13.60
2023-03-24T10:25:51.248Z,7.50
2023-03-24T10:30:50.370Z,7.47
2023-03-24T10:35:55.613Z,8.65
2023-03-24T10:40:54.511Z,9.93
2023-03-24T10:45:53.563Z,8.02
2023-03-24T10:50:51.535Z,7.47
2023-03-24T10:55:50.137Z,7.03
2023-03-24T11:00:48.968Z,7.32
2023-03-24T11:05:46.483Z,6.43
2023-03-24T11:10:46.633Z,10.20
2023-03-24T11:15:55.191Z,9.75
2023-03-24T11:21:35.091Z,5.47
2023-03-24T11:26:36.272Z,7.45
2023-03-24T11:31:40.182Z,4.75
2023-03-24T11:37:05.041Z,5.47
2023-03-24T11:42:06.222Z,5.80
2023-03-24T11:47:13.051Z,7.20
2023-03-24T11:52:20.056Z,8.40
2023-03-24T11:57:28.790Z,7.07
2023-03-24T12:02:48.017Z,5.90
2023-03-24T12:08:11.347Z,5.80
2023-03-24T12:13:22.182Z,5.20
2023-03-24T12:18:58.120Z,8.15
2023-03-24T12:23:58.726Z,6.57
2023-03-24T12:29:05.361Z,6.07
2023-03-24T12:34:15.481Z,7.00
2023-03-24T12:39:16.658Z,6.00
2023-03-24T12:44:50.725Z,6.07
2023-03-24T12:50:00.691Z,5.65
2023-03-24T12:55:04.022Z,5.13
2023-03-24T13:00:08.782Z,8.30
2023-03-24T13:05:18.641Z,7.82
2023-03-24T13:10:19.876Z,6.03
2023-03-24T13:15:21.014Z,9.85
2023-03-24T13:20:26.724Z,7.13
2023-03-24T13:25:33.147Z,6.00
2023-03-24T13:36:15.141Z,6.75
2023-03-24T13:41:23.501Z,7.50
2023-03-24T13:46:20.807Z,5.88
2023-03-24T13:51:27.961Z,8.55
2023-03-24T13:56:31.317Z,6.30
2023-03-24T14:01:34.296Z,6.95
2023-03-24T14:06:46.575Z,6.05
2023-03-24T14:11:48.959Z,5.80
2023-03-24T14:17:02.072Z,7.65
2023-03-24T14:22:11.340Z,11.40
2023-03-24T14:27:34.157Z,8.10
2023-03-24T14:32:38.656Z,11.98
2023-03-24T14:37:47.810Z,6.63
2023-03-24T14:43:05.514Z,6.55
2023-03-24T14:48:06.196Z,11.20
2023-03-24T14:53:04.309Z,8.57
2023-03-24T14:58:11.720Z,7.55
2023-03-24T15:03:18.920Z,8.88
2023-03-24T15:08:20.923Z,11.95
2023-03-24T15:13:41.182Z,7.18
2023-03-24T15:18:57.673Z,7.65
2023-03-24T15:24:00.486Z,7.60
2023-03-24T15:28:59.956Z,6.70
2023-03-24T15:34:08.493Z,6.65
2023-03-24T15:39:20.363Z,7.05
2023-03-24T15:44:20.871Z,10.63
2023-03-24T15:49:25.576Z,5.80
2023-03-24T15:54:25.729Z,6.85
2023-03-24T15:59:25.136Z,7.13
2023-03-24T16:04:24.965Z,5.65
2023-03-24T16:09:26.753Z,6.80
2023-03-24T16:14:26.099Z,14.15
2023-03-24T16:19:23.470Z,13.57
2023-03-24T16:24:20.650Z,14.60
2023-03-24T16:29:19.650Z,11.77
2023-03-24T16:34:18.121Z,11.00
2023-03-24T16:39:16.469Z,11.52
2023-03-24T16:44:13.965Z,52.70
2023-03-24T16:49:14.839Z,48.28
2023-03-24T16:54:11.850Z,29.85
2023-03-24T16:59:09.946Z,24.70
2023-03-24T17:04:09.160Z,31.40
2023-03-24T17:09:07.617Z,23.38
2023-03-24T17:14:07.894Z,22.02
2023-03-24T17:19:05.126Z,40.60
2023-03-24T17:24:03.189Z,40.35
2023-03-24T17:29:06.913Z,33.88
2023-03-24T17:34:15.199Z,30.67
2023-03-24T17:39:19.837Z,49.70
2023-03-24T17:44:17.875Z,37.33
2023-03-24T17:49:23.233Z,38.00
2023-03-24T17:54:33.318Z,52.83
2023-03-24T17:59:31.125Z,47.45
2023-03-24T18:04:28.605Z,44.33
2023-03-24T18:09:31.601Z,46.03
2023-03-24T18:14:31.408Z,36.20
2023-03-24T18:19:35.877Z,37.45
2023-03-24T18:24:54.163Z,29.23
2023-03-24T18:29:55.991Z,18.67
2023-03-24T18:35:05.366Z,15.73
2023-03-24T18:40:09.169Z,19.60
2023-03-24T18:45:08.304Z,14.45
2023-03-24T18:50:09.860Z,13.93
2023-03-24T18:55:20.343Z,12.95
2023-03-24T19:00:19.766Z,11.88
2023-03-24T19:05:18.932Z,16.30
2023-03-24T19:10:21.369Z,11.82
2023-03-24T19:15:25.109Z,15.80
2023-03-24T19:20:24.318Z,15.60
2023-03-24T19:25:24.329Z,14.73
2023-03-24T19:30:25.999Z,15.05
2023-03-24T19:35:23.207Z,12.90
2023-03-24T19:40:23.018Z,11.73
2023-03-24T19:45:20.788Z,10.93
2023-03-24T19:50:18.764Z,11.93
2023-03-24T19:55:16.137Z,9.70
2023-03-24T20:00:16.322Z,15.60
2023-03-24T20:05:14.087Z,13.60
2023-03-24T20:10:13.086Z,10.90
2023-03-24T20:15:10.840Z,10.43
2023-03-24T20:20:12.946Z,10.80
2023-03-24T20:25:12.030Z,10.55
2023-03-24T20:30:10.326Z,10.25
2023-03-24T20:35:12.291Z,11.38
2023-03-24T20:40:10.328Z,11.65
2023-03-24T20:45:10.537Z,10.55
2023-03-24T20:50:08.842Z,11.02
2023-03-24T20:55:08.310Z,10.82
2023-03-24T21:00:13.368Z,11.45
2023-03-24T21:05:11.406Z,9.80
2023-03-24T21:10:09.243Z,9.77
2023-03-24T21:15:07.691Z,9.57
2023-03-24T21:20:08.387Z,8.73
2023-03-24T21:25:07.006Z,10.02
2023-03-24T21:30:04.822Z,11.07
2023-03-24T21:35:01.760Z,9.55
2023-03-24T21:40:01.998Z,11.27
2023-03-24T21:44:59.643Z,8.65
2023-03-24T21:49:58.489Z,10.48
2023-03-24T21:54:57.554Z,8.80
2023-03-24T21:59:54.541Z,10.05
2023-03-24T22:04:52.209Z,8.80
2023-03-24T22:09:50.060Z,10.70
2023-03-24T22:14:47.169Z,9.48
2023-03-24T22:19:44.166Z,8.90
2023-03-24T22:24:41.687Z,11.02
2023-03-24T22:29:39.895Z,8.23
2023-03-24T22:34:36.722Z,9.52
2023-03-24T22:39:33.839Z,10.43
2023-03-24T22:44:31.410Z,7.07
2023-03-24T22:49:28.759Z,8.70
2023-03-24T22:54:26.311Z,8.48
2023-03-24T22:59:24.042Z,8.98
2023-03-24T23:04:21.584Z,9.45
2023-03-24T23:09:18.556Z,10.88
2023-03-24T23:14:17.757Z,9.60
2023-03-24T23:19:14.725Z,11.10
2023-03-24T23:24:12.363Z,13.38
2023-03-24T23:29:09.219Z,10.82
2023-03-24T23:34:06.951Z,10.52
2023-03-24T23:39:04.214Z,8.23
2023-03-24T23:44:01.956Z,7.85
2023-03-24T23:48:58.913Z,10.57
2023-03-24T23:53:55.752Z,9.85
2023-03-24T23:58:52.631Z,9.40
